»·PEaware :: ASA877 KSFO-KLAX

ASA877 :: KSFO-KLAX

FLIGHT INFORMATION

Flight Status: Arrived
Operator:
Alaska Airlines
More flights by this operator :: More flights under this callsign
Pilot: Anthony T. (15846)
Aircraft: BOEING 737-800
(B738)
More flights by this aircraft type
Origin: KSFO San Francisco Intl
United States
Destination: KLAX Los Angeles Intl
United States
More flights between these airports :: More routes between these airports
Route: +SSTIK3 EBAYE BURGL IRNMN1
File this flight plan on PilotEdge
Remarks:
Altitude:
(Current/Filed)
27,000ft
Speed:
(Current/Filed)
315kts
Departed: 12-May-18 08:18 PM
Arrived: 12-May-18 09:16 PM
Distance/Time
Traveled:
293nm/0:58
Distance/Time
To Go:
Arrived

Flight Plot

Page will automatically refresh every two minutes.

Flight plan parsing failed; only flown route is shown


Map Options




Map Legend


Flown Route
Filed Route
Departure Airport
Arrival Airport
Navaid (VOR, NDB)
Fix

Horizontal Profiles

Position Reports

Time Latitude Longitude Heading Altitude Ground
Speed
12-May-18 20:08 37.611683 -122.385971 34 31ft 0kts
12-May-18 20:09 37.611683 -122.385971 34 31ft 0kts
12-May-18 20:10 37.611683 -122.385971 34 31ft 0kts
12-May-18 20:11 37.611683 -122.385971 34 31ft 0kts
12-May-18 20:12 37.611414 -122.386492 119 31ft 0kts
12-May-18 20:13 37.611414 -122.386492 119 31ft 0kts
12-May-18 20:14 37.610700 -122.384861 119 31ft 9kts
12-May-18 20:15 37.609313 -122.384057 150 31ft 6kts
12-May-18 20:16 37.608983 -122.383684 127 31ft 0kts
12-May-18 20:17 37.608993 -122.382240 31 29ft 0kts
12-May-18 20:18 37.623301 -122.372710 26 74ft 205kts
12-May-18 20:19 37.690005 -122.359736 346 3110ft 264kts
12-May-18 20:20 37.713094 -122.428658 238 6113ft 263kts
12-May-18 20:21 37.640316 -122.455145 187 9629ft 304kts
12-May-18 20:22 37.553136 -122.466249 185 13077ft 339kts
12-May-18 20:23 37.462021 -122.431328 133 16102ft 371kts
12-May-18 20:24 37.388957 -122.337000 128 19109ft 390kts
12-May-18 20:25 37.313234 -122.234602 127 22132ft 413kts
12-May-18 20:26 37.233566 -122.126912 127 25145ft 433kts
12-May-18 20:27 37.150050 -122.014283 127 27067ft 471kts
12-May-18 20:28 37.053497 -121.884563 129 27120ft 544kts
12-May-18 20:29 36.949143 -121.745079 131 27118ft 555kts
12-May-18 20:30 36.844007 -121.605284 131 27090ft 554kts
12-May-18 20:31 36.738767 -121.465694 131 27087ft 555kts
12-May-18 20:32 36.639551 -121.334750 131 27085ft 518kts
12-May-18 20:33 36.540415 -121.204451 131 27083ft 519kts
12-May-18 20:34 36.442072 -121.075622 132 27084ft 510kts
12-May-18 20:35 36.350224 -120.944755 130 27078ft 500kts
12-May-18 20:36 36.259050 -120.814139 130 27075ft 501kts
12-May-18 20:37 36.168042 -120.684202 130 27076ft 501kts
12-May-18 20:38 36.076839 -120.554490 130 27078ft 501kts
12-May-18 20:39 35.985308 -120.424806 130 27065ft 501kts
12-May-18 20:40 35.893292 -120.295131 131 27047ft 508kts
12-May-18 20:41 35.779834 -120.193728 149 27060ft 506kts
12-May-18 20:42 35.660033 -120.103194 149 27070ft 505kts
12-May-18 20:43 35.538697 -120.011682 149 27074ft 525kts
12-May-18 20:44 35.416767 -119.920028 149 27070ft 505kts
12-May-18 20:45 35.297344 -119.830165 146 27053ft 507kts
12-May-18 20:46 35.184666 -119.726758 143 27100ft 507kts
12-May-18 20:47 35.073065 -119.622780 143 27049ft 508kts
12-May-18 20:48 34.960689 -119.518287 144 27047ft 508kts
12-May-18 20:49 34.848583 -119.416526 146 27077ft 503kts
12-May-18 20:50 34.737289 -119.317433 147 25282ft 488kts
12-May-18 20:51 34.629849 -119.223735 147 23158ft 464kts
12-May-18 20:52 34.530965 -119.137598 147 22450ft 425kts
12-May-18 20:53 34.439697 -119.057083 147 20217ft 405kts
12-May-18 20:54 34.350397 -118.979634 146 17737ft 392kts
12-May-18 20:55 34.266925 -118.904220 145 14963ft 368kts
12-May-18 20:56 34.190477 -118.834066 144 14006ft 315kts
12-May-18 20:57 34.125897 -118.767983 139 12887ft 301kts
12-May-18 20:58 34.065757 -118.702820 139 10402ft 287kts
12-May-18 20:59 34.029231 -118.630931 101 8173ft 278kts
12-May-18 21:00 34.019205 -118.548191 97 7992ft 276kts
12-May-18 21:01 34.011722 -118.472407 96 7559ft 256kts
12-May-18 21:02 34.017510 -118.414605 81 6664ft 241kts
12-May-18 21:03 34.026329 -118.347987 82 5310ft 226kts
12-May-18 21:04 34.034691 -118.287546 81 5000ft 215kts
12-May-18 21:05 34.043920 -118.221815 81 4982ft 211kts
12-May-18 21:06 34.053804 -118.150631 81 4982ft 228kts
12-May-18 21:07 34.040971 -118.088800 166 4973ft 201kts
12-May-18 21:08 33.989483 -118.077010 171 4989ft 192kts
12-May-18 21:09 33.944584 -118.089191 253 4556ft 191kts
12-May-18 21:10 33.955700 -118.146580 278 2793ft 187kts
12-May-18 21:11 33.955523 -118.207525 262 2355ft 181kts
12-May-18 21:12 33.949957 -118.261082 261 1876ft 153kts
12-May-18 21:13 33.944705 -118.311066 262 1397ft 143kts
12-May-18 21:14 33.939927 -118.357508 260 578ft 140kts
12-May-18 21:15 33.935797 -118.397556 261 112ft 62kts
12-May-18 21:16 33.935655 -118.405502 289 124ft 0kts
12-May-18 21:17 33.935769 -118.405864 291 125ft 5kts
12-May-18 21:18 33.935958 -118.406643 275 126ft 10kts
12-May-18 21:19 33.937004 -118.409024 350 127ft 7kts
12-May-18 21:20 33.938719 -118.408628 81 127ft 14kts
12-May-18 21:21 33.939467 -118.405418 2 123ft 4kts
12-May-18 21:22 33.940187 -118.405162 75 123ft 2kts
12-May-18 21:23 33.940226 -118.404912 81 123ft 0kts

Navigation Log

Ident Type
Flight plan parsing failed, navigation log unavailable